sensor_id;sensor_type;location;lat;lon;timestamp;temperature;humidity
44671;DHT22;48397;53.016;-2.260;2023-05-15T00:01:36;9.60;99.90
44671;DHT22;48397;53.016;-2.260;2023-05-15T00:04:11;9.60;99.90
44671;DHT22;48397;53.016;-2.260;2023-05-15T00:09:42;9.60;99.90
44671;DHT22;48397;53.016;-2.260;2023-05-15T00:12:10;9.40;99.90
44671;DHT22;48397;53.016;-2.260;2023-05-15T00:14:37;9.40;99.90
44671;DHT22;48397;53.016;-2.260;2023-05-15T00:17:05;9.40;99.90
44671;DHT22;48397;53.016;-2.260;2023-05-15T00:19:34;9.40;99.90
44671;DHT22;48397;53.016;-2.260;2023-05-15T00:22:04;9.40;99.90
44671;DHT22;48397;53.016;-2.260;2023-05-15T00:24:33;9.40;99.90
44671;DHT22;48397;53.016;-2.260;2023-05-15T00:27:01;9.40;99.90
44671;DHT22;48397;53.016;-2.260;2023-05-15T00:29:29;9.50;99.90
44671;DHT22;48397;53.016;-2.260;2023-05-15T00:34:26;9.50;99.90
44671;DHT22;48397;53.016;-2.260;2023-05-15T00:36:54;9.50;99.90
44671;DHT22;48397;53.016;-2.260;2023-05-15T00:39:21;9.60;99.90
44671;DHT22;48397;53.016;-2.260;2023-05-15T00:41:50;9.60;99.90
44671;DHT22;48397;53.016;-2.260;2023-05-15T00:44:19;9.60;99.90
44671;DHT22;48397;53.016;-2.260;2023-05-15T00:46:47;9.60;99.90
44671;DHT22;48397;53.016;-2.260;2023-05-15T00:49:17;9.60;99.90
44671;DHT22;48397;53.016;-2.260;2023-05-15T00:51:46;9.60;99.90
44671;DHT22;48397;53.016;-2.260;2023-05-15T00:54:15;9.50;99.90
44671;DHT22;48397;53.016;-2.260;2023-05-15T00:56:44;9.50;99.90
44671;DHT22;48397;53.016;-2.260;2023-05-15T00:59:12;9.50;99.90
44671;DHT22;48397;53.016;-2.260;2023-05-15T01:01:40;9.50;99.90
44671;DHT22;48397;53.016;-2.260;2023-05-15T01:04:07;9.40;99.90
44671;DHT22;48397;53.016;-2.260;2023-05-15T01:06:36;9.20;99.90
44671;DHT22;48397;53.016;-2.260;2023-05-15T01:09:04;9.20;99.90
44671;DHT22;48397;53.016;-2.260;2023-05-15T01:11:37;9.20;99.90
44671;DHT22;48397;53.016;-2.260;2023-05-15T01:14:08;9.30;99.90
44671;DHT22;48397;53.016;-2.260;2023-05-15T01:16:36;9.20;99.90
44671;DHT22;48397;53.016;-2.260;2023-05-15T01:19:05;9.20;99.90
44671;DHT22;48397;53.016;-2.260;2023-05-15T01:24:23;9.00;99.90
44671;DHT22;48397;53.016;-2.260;2023-05-15T01:27:19;9.00;99.90
44671;DHT22;48397;53.016;-2.260;2023-05-15T01:38:59;8.80;99.90
44671;DHT22;48397;53.016;-2.260;2023-05-15T01:41:50;8.80;99.90
44671;DHT22;48397;53.016;-2.260;2023-05-15T01:47:11;8.70;99.90
44671;DHT22;48397;53.016;-2.260;2023-05-15T01:49:41;8.70;99.90
44671;DHT22;48397;53.016;-2.260;2023-05-15T01:52:19;8.70;99.90
44671;DHT22;48397;53.016;-2.260;2023-05-15T01:54:48;8.70;99.90
44671;DHT22;48397;53.016;-2.260;2023-05-15T01:57:17;8.70;99.90
44671;DHT22;48397;53.016;-2.260;2023-05-15T01:59:45;8.70;99.90
44671;DHT22;48397;53.016;-2.260;2023-05-15T02:02:13;8.60;99.90
44671;DHT22;48397;53.016;-2.260;2023-05-15T02:04:43;6.40;99.90
44671;DHT22;48397;53.016;-2.260;2023-05-15T02:07:13;8.50;99.90
44671;DHT22;48397;53.016;-2.260;2023-05-15T02:09:42;8.50;99.90
44671;DHT22;48397;53.016;-2.260;2023-05-15T02:12:14;8.50;99.90
44671;DHT22;48397;53.016;-2.260;2023-05-15T02:14:42;8.50;99.90
44671;DHT22;48397;53.016;-2.260;2023-05-15T02:17:11;8.50;99.90
44671;DHT22;48397;53.016;-2.260;2023-05-15T02:19:39;8.40;99.90
44671;DHT22;48397;53.016;-2.260;2023-05-15T02:22:08;8.40;99.90
44671;DHT22;48397;53.016;-2.260;2023-05-15T02:24:37;8.40;99.90
44671;DHT22;48397;53.016;-2.260;2023-05-15T02:30:02;8.30;99.90
44671;DHT22;48397;53.016;-2.260;2023-05-15T02:35:32;8.40;99.90
44671;DHT22;48397;53.016;-2.260;2023-05-15T02:38:10;8.30;99.90
44671;DHT22;48397;53.016;-2.260;2023-05-15T02:40:39;8.40;99.90
44671;DHT22;48397;53.016;-2.260;2023-05-15T02:43:09;8.40;99.90
44671;DHT22;48397;53.016;-2.260;2023-05-15T02:45:38;8.30;99.90
44671;DHT22;48397;53.016;-2.260;2023-05-15T02:48:06;8.30;99.90
44671;DHT22;48397;53.016;-2.260;2023-05-15T02:53:03;8.20;99.90
44671;DHT22;48397;53.016;-2.260;2023-05-15T02:55:33;8.20;99.90
44671;DHT22;48397;53.016;-2.260;2023-05-15T02:58:02;8.20;99.90
44671;DHT22;48397;53.016;-2.260;2023-05-15T03:00:30;8.20;99.90
44671;DHT22;48397;53.016;-2.260;2023-05-15T03:02:58;8.20;99.90
44671;DHT22;48397;53.016;-2.260;2023-05-15T03:05:26;8.20;99.90
44671;DHT22;48397;53.016;-2.260;2023-05-15T03:07:56;8.20;99.90
44671;DHT22;48397;53.016;-2.260;2023-05-15T03:12:53;8.30;99.90
44671;DHT22;48397;53.016;-2.260;2023-05-15T03:15:22;8.20;99.90
44671;DHT22;48397;53.016;-2.260;2023-05-15T03:20:18;8.20;99.90
44671;DHT22;48397;53.016;-2.260;2023-05-15T03:22:46;8.20;99.90
44671;DHT22;48397;53.016;-2.260;2023-05-15T03:25:15;8.10;99.90
44671;DHT22;48397;53.016;-2.260;2023-05-15T03:27:42;8.00;99.90
44671;DHT22;48397;53.016;-2.260;2023-05-15T03:30:10;7.90;99.90
44671;DHT22;48397;53.016;-2.260;2023-05-15T03:32:38;7.80;99.90
44671;DHT22;48397;53.016;-2.260;2023-05-15T03:35:06;7.80;99.90
44671;DHT22;48397;53.016;-2.260;2023-05-15T03:37:34;7.80;99.90
44671;DHT22;48397;53.016;-2.260;2023-05-15T03:40:02;7.70;99.90
44671;DHT22;48397;53.016;-2.260;2023-05-15T03:42:31;7.70;99.90
44671;DHT22;48397;53.016;-2.260;2023-05-15T03:44:59;7.60;99.90
44671;DHT22;48397;53.016;-2.260;2023-05-15T03:47:26;7.60;99.90
44671;DHT22;48397;53.016;-2.260;2023-05-15T03:49:54;7.60;99.90
44671;DHT22;48397;53.016;-2.260;2023-05-15T03:52:21;7.60;99.90
44671;DHT22;48397;53.016;-2.260;2023-05-15T03:54:49;7.60;99.90
44671;DHT22;48397;53.016;-2.260;2023-05-15T03:57:17;7.60;99.90
44671;DHT22;48397;53.016;-2.260;2023-05-15T03:59:45;7.60;99.90
44671;DHT22;48397;53.016;-2.260;2023-05-15T04:02:12;7.50;99.90
44671;DHT22;48397;53.016;-2.260;2023-05-15T04:04:40;7.50;99.90
44671;DHT22;48397;53.016;-2.260;2023-05-15T04:07:08;7.60;99.90
44671;DHT22;48397;53.016;-2.260;2023-05-15T04:09:36;8.70;99.90
44671;DHT22;48397;53.016;-2.260;2023-05-15T04:12:04;7.50;99.90
44671;DHT22;48397;53.016;-2.260;2023-05-15T04:14:32;7.50;99.90
44671;DHT22;48397;53.016;-2.260;2023-05-15T04:17:00;7.40;99.90
44671;DHT22;48397;53.016;-2.260;2023-05-15T04:19:27;7.40;99.90
44671;DHT22;48397;53.016;-2.260;2023-05-15T04:21:55;7.30;99.90
44671;DHT22;48397;53.016;-2.260;2023-05-15T04:24:23;7.30;99.90
44671;DHT22;48397;53.016;-2.260;2023-05-15T04:26:50;7.30;99.90
44671;DHT22;48397;53.016;-2.260;2023-05-15T04:29:18;7.30;99.90
44671;DHT22;48397;53.016;-2.260;2023-05-15T04:31:46;7.20;99.90
44671;DHT22;48397;53.016;-2.260;2023-05-15T04:34:13;7.20;99.90
44671;DHT22;48397;53.016;-2.260;2023-05-15T04:36:41;7.30;99.90
44671;DHT22;48397;53.016;-2.260;2023-05-15T04:39:09;7.20;99.90
44671;DHT22;48397;53.016;-2.260;2023-05-15T04:41:37;7.40;99.90
44671;DHT22;48397;53.016;-2.260;2023-05-15T04:44:04;7.50;99.90
44671;DHT22;48397;53.016;-2.260;2023-05-15T04:46:32;7.60;99.90
44671;DHT22;48397;53.016;-2.260;2023-05-15T04:49:01;7.50;99.90
44671;DHT22;48397;53.016;-2.260;2023-05-15T04:51:29;7.70;99.90
44671;DHT22;48397;53.016;-2.260;2023-05-15T04:53:57;7.70;99.90
44671;DHT22;48397;53.016;-2.260;2023-05-15T04:56:24;7.90;99.90
44671;DHT22;48397;53.016;-2.260;2023-05-15T04:58:52;7.90;99.90
44671;DHT22;48397;53.016;-2.260;2023-05-15T05:01:20;8.00;99.90
44671;DHT22;48397;53.016;-2.260;2023-05-15T05:06:17;8.20;99.90
44671;DHT22;48397;53.016;-2.260;2023-05-15T05:08:45;8.40;99.90
44671;DHT22;48397;53.016;-2.260;2023-05-15T05:11:13;8.30;99.90
44671;DHT22;48397;53.016;-2.260;2023-05-15T05:13:43;8.50;99.90
44671;DHT22;48397;53.016;-2.260;2023-05-15T05:16:10;8.60;99.90
44671;DHT22;48397;53.016;-2.260;2023-05-15T05:18:38;8.70;99.90
44671;DHT22;48397;53.016;-2.260;2023-05-15T05:21:07;8.70;99.90
44671;DHT22;48397;53.016;-2.260;2023-05-15T05:23:34;8.70;99.90
44671;DHT22;48397;53.016;-2.260;2023-05-15T05:26:02;8.70;99.90
44671;DHT22;48397;53.016;-2.260;2023-05-15T05:28:32;8.70;99.90
44671;DHT22;48397;53.016;-2.260;2023-05-15T05:30:59;8.70;99.90
44671;DHT22;48397;53.016;-2.260;2023-05-15T05:33:30;8.60;99.90
44671;DHT22;48397;53.016;-2.260;2023-05-15T05:35:58;8.60;99.90
44671;DHT22;48397;53.016;-2.260;2023-05-15T05:38:26;8.60;99.90
44671;DHT22;48397;53.016;-2.260;2023-05-15T05:40:54;8.60;99.90
44671;DHT22;48397;53.016;-2.260;2023-05-15T05:43:21;8.60;99.90
44671;DHT22;48397;53.016;-2.260;2023-05-15T05:45:50;8.50;99.90
44671;DHT22;48397;53.016;-2.260;2023-05-15T05:48:18;8.60;99.90
44671;DHT22;48397;53.016;-2.260;2023-05-15T05:50:46;8.70;99.90
44671;DHT22;48397;53.016;-2.260;2023-05-15T05:53:15;8.60;99.90
44671;DHT22;48397;53.016;-2.260;2023-05-15T05:55:43;8.80;99.90
44671;DHT22;48397;53.016;-2.260;2023-05-15T05:58:11;8.80;99.90
44671;DHT22;48397;53.016;-2.260;2023-05-15T06:00:51;9.00;99.90
44671;DHT22;48397;53.016;-2.260;2023-05-15T06:03:19;9.00;99.90
44671;DHT22;48397;53.016;-2.260;2023-05-15T06:05:48;9.30;99.90
44671;DHT22;48397;53.016;-2.260;2023-05-15T06:08:15;9.50;99.90
44671;DHT22;48397;53.016;-2.260;2023-05-15T06:10:43;9.70;99.90
44671;DHT22;48397;53.016;-2.260;2023-05-15T06:13:11;9.70;99.90
44671;DHT22;48397;53.016;-2.260;2023-05-15T06:15:41;9.90;99.90
44671;DHT22;48397;53.016;-2.260;2023-05-15T06:18:10;13.10;99.90
44671;DHT22;48397;53.016;-2.260;2023-05-15T06:20:38;9.90;99.90
44671;DHT22;48397;53.016;-2.260;2023-05-15T06:23:09;10.00;99.90
44671;DHT22;48397;53.016;-2.260;2023-05-15T06:25:37;9.80;99.90
44671;DHT22;48397;53.016;-2.260;2023-05-15T06:28:04;9.80;99.90
44671;DHT22;48397;53.016;-2.260;2023-05-15T06:33:01;9.80;99.90
44671;DHT22;48397;53.016;-2.260;2023-05-15T06:35:29;9.90;99.90
44671;DHT22;48397;53.016;-2.260;2023-05-15T06:37:56;9.90;99.90
44671;DHT22;48397;53.016;-2.260;2023-05-15T06:40:24;10.00;99.90
44671;DHT22;48397;53.016;-2.260;2023-05-15T06:42:52;10.00;99.90
44671;DHT22;48397;53.016;-2.260;2023-05-15T06:45:20;10.00;99.90
44671;DHT22;48397;53.016;-2.260;2023-05-15T06:47:48;10.00;99.90
44671;DHT22;48397;53.016;-2.260;2023-05-15T06:50:16;10.00;99.90
44671;DHT22;48397;53.016;-2.260;2023-05-15T06:52:44;9.90;99.90
44671;DHT22;48397;53.016;-2.260;2023-05-15T06:55:15;9.90;99.90
44671;DHT22;48397;53.016;-2.260;2023-05-15T06:57:45;10.00;99.90
44671;DHT22;48397;53.016;-2.260;2023-05-15T07:00:13;9.90;99.90
44671;DHT22;48397;53.016;-2.260;2023-05-15T07:02:42;9.80;99.90
44671;DHT22;48397;53.016;-2.260;2023-05-15T07:05:10;9.80;99.90
44671;DHT22;48397;53.016;-2.260;2023-05-15T07:07:38;9.80;99.90
44671;DHT22;48397;53.016;-2.260;2023-05-15T07:10:06;9.70;99.90
44671;DHT22;48397;53.016;-2.260;2023-05-15T07:12:34;9.70;99.90
44671;DHT22;48397;53.016;-2.260;2023-05-15T07:15:03;9.70;99.90
44671;DHT22;48397;53.016;-2.260;2023-05-15T07:17:32;9.80;99.90
44671;DHT22;48397;53.016;-2.260;2023-05-15T07:20:01;9.90;99.90
44671;DHT22;48397;53.016;-2.260;2023-05-15T07:24:59;10.10;99.90
44671;DHT22;48397;53.016;-2.260;2023-05-15T07:27:27;10.20;99.90
44671;DHT22;48397;53.016;-2.260;2023-05-15T07:29:56;10.20;99.90
44671;DHT22;48397;53.016;-2.260;2023-05-15T07:32:23;10.40;99.90
44671;DHT22;48397;53.016;-2.260;2023-05-15T07:34:51;10.50;99.90
44671;DHT22;48397;53.016;-2.260;2023-05-15T07:37:19;10.40;99.90
44671;DHT22;48397;53.016;-2.260;2023-05-15T07:39:46;10.50;99.90
44671;DHT22;48397;53.016;-2.260;2023-05-15T07:42:15;10.50;99.90
44671;DHT22;48397;53.016;-2.260;2023-05-15T07:44:43;10.60;99.90
44671;DHT22;48397;53.016;-2.260;2023-05-15T07:47:14;10.70;99.90
44671;DHT22;48397;53.016;-2.260;2023-05-15T07:49:42;10.70;99.90
44671;DHT22;48397;53.016;-2.260;2023-05-15T07:52:10;10.80;99.90
44671;DHT22;48397;53.016;-2.260;2023-05-15T07:54:39;10.90;99.90
44671;DHT22;48397;53.016;-2.260;2023-05-15T07:57:08;10.80;99.90
44671;DHT22;48397;53.016;-2.260;2023-05-15T07:59:35;10.80;99.90
44671;DHT22;48397;53.016;-2.260;2023-05-15T08:02:04;10.90;99.90
44671;DHT22;48397;53.016;-2.260;2023-05-15T08:04:32;10.90;99.90
44671;DHT22;48397;53.016;-2.260;2023-05-15T08:07:00;11.00;99.90
44671;DHT22;48397;53.016;-2.260;2023-05-15T08:09:27;11.30;99.90
44671;DHT22;48397;53.016;-2.260;2023-05-15T08:11:56;11.40;99.90
44671;DHT22;48397;53.016;-2.260;2023-05-15T08:14:40;11.40;99.90
44671;DHT22;48397;53.016;-2.260;2023-05-15T08:17:08;11.50;99.90
44671;DHT22;48397;53.016;-2.260;2023-05-15T08:19:36;13.60;99.90
44671;DHT22;48397;53.016;-2.260;2023-05-15T08:22:03;11.50;99.90
44671;DHT22;48397;53.016;-2.260;2023-05-15T08:24:31;11.40;99.90
44671;DHT22;48397;53.016;-2.260;2023-05-15T08:26:59;11.30;99.90
44671;DHT22;48397;53.016;-2.260;2023-05-15T08:29:27;11.30;99.90
44671;DHT22;48397;53.016;-2.260;2023-05-15T08:31:54;11.40;99.90
44671;DHT22;48397;53.016;-2.260;2023-05-15T08:34:23;11.40;99.90
44671;DHT22;48397;53.016;-2.260;2023-05-15T08:36:51;11.50;99.90
44671;DHT22;48397;53.016;-2.260;2023-05-15T08:41:57;11.80;99.90
44671;DHT22;48397;53.016;-2.260;2023-05-15T08:44:27;11.90;99.90
44671;DHT22;48397;53.016;-2.260;2023-05-15T08:46:56;12.00;99.90
44671;DHT22;48397;53.016;-2.260;2023-05-15T08:52:13;12.30;99.90
44671;DHT22;48397;53.016;-2.260;2023-05-15T08:54:41;12.30;99.90
44671;DHT22;48397;53.016;-2.260;2023-05-15T08:57:10;12.30;99.90
44671;DHT22;48397;53.016;-2.260;2023-05-15T08:59:38;10.30;99.90
44671;DHT22;48397;53.016;-2.260;2023-05-15T09:02:06;12.20;99.90
44671;DHT22;48397;53.016;-2.260;2023-05-15T09:04:35;12.10;99.90
44671;DHT22;48397;53.016;-2.260;2023-05-15T09:07:03;12.00;99.90
44671;DHT22;48397;53.016;-2.260;2023-05-15T09:09:32;12.00;99.90
44671;DHT22;48397;53.016;-2.260;2023-05-15T09:12:02;12.20;99.90
44671;DHT22;48397;53.016;-2.260;2023-05-15T09:14:30;12.30;99.90
44671;DHT22;48397;53.016;-2.260;2023-05-15T09:16:58;12.30;99.90
44671;DHT22;48397;53.016;-2.260;2023-05-15T09:19:26;12.40;99.90
44671;DHT22;48397;53.016;-2.260;2023-05-15T09:21:54;12.70;99.90
44671;DHT22;48397;53.016;-2.260;2023-05-15T09:24:23;12.60;99.90
44671;DHT22;48397;53.016;-2.260;2023-05-15T09:27:03;12.80;99.90
44671;DHT22;48397;53.016;-2.260;2023-05-15T09:29:32;12.80;99.90
44671;DHT22;48397;53.016;-2.260;2023-05-15T09:32:06;12.80;99.90
44671;DHT22;48397;53.016;-2.260;2023-05-15T09:34:36;12.90;99.90
44671;DHT22;48397;53.016;-2.260;2023-05-15T09:37:07;12.80;99.90
44671;DHT22;48397;53.016;-2.260;2023-05-15T09:39:40;12.90;99.90
44671;DHT22;48397;53.016;-2.260;2023-05-15T09:42:13;13.10;99.90
44671;DHT22;48397;53.016;-2.260;2023-05-15T09:44:43;13.20;99.90
44671;DHT22;48397;53.016;-2.260;2023-05-15T09:47:12;13.20;99.90
44671;DHT22;48397;53.016;-2.260;2023-05-15T09:49:43;12.90;99.90
44671;DHT22;48397;53.016;-2.260;2023-05-15T09:52:11;12.80;99.90
44671;DHT22;48397;53.016;-2.260;2023-05-15T09:54:44;12.80;99.90
44671;DHT22;48397;53.016;-2.260;2023-05-15T09:57:20;12.60;99.90
44671;DHT22;48397;53.016;-2.260;2023-05-15T10:02:21;12.80;99.90
44671;DHT22;48397;53.016;-2.260;2023-05-15T10:04:55;13.20;99.90
44671;DHT22;48397;53.016;-2.260;2023-05-15T10:07:30;13.20;99.90
44671;DHT22;48397;53.016;-2.260;2023-05-15T10:09:59;13.10;99.90
44671;DHT22;48397;53.016;-2.260;2023-05-15T10:12:29;12.90;99.90
44671;DHT22;48397;53.016;-2.260;2023-05-15T10:14:58;12.70;99.90
44671;DHT22;48397;53.016;-2.260;2023-05-15T10:17:30;12.50;99.90
44671;DHT22;48397;53.016;-2.260;2023-05-15T10:19:59;12.40;99.90
44671;DHT22;48397;53.016;-2.260;2023-05-15T10:22:29;12.50;99.90
44671;DHT22;48397;53.016;-2.260;2023-05-15T10:27:34;12.50;99.90
44671;DHT22;48397;53.016;-2.260;2023-05-15T10:30:06;12.70;99.90
44671;DHT22;48397;53.016;-2.260;2023-05-15T10:32:34;13.10;99.90
44671;DHT22;48397;53.016;-2.260;2023-05-15T10:35:03;13.30;99.90
44671;DHT22;48397;53.016;-2.260;2023-05-15T10:37:31;13.60;99.90
44671;DHT22;48397;53.016;-2.260;2023-05-15T10:39:59;13.80;99.90
44671;DHT22;48397;53.016;-2.260;2023-05-15T10:42:29;13.80;99.90
44671;DHT22;48397;53.016;-2.260;2023-05-15T10:44:58;13.80;99.90
44671;DHT22;48397;53.016;-2.260;2023-05-15T10:47:29;13.80;99.90
44671;DHT22;48397;53.016;-2.260;2023-05-15T10:49:58;13.70;99.90
44671;DHT22;48397;53.016;-2.260;2023-05-15T10:52:26;13.70;99.90
44671;DHT22;48397;53.016;-2.260;2023-05-15T10:54:54;13.70;99.90
44671;DHT22;48397;53.016;-2.260;2023-05-15T10:57:23;13.80;99.90
44671;DHT22;48397;53.016;-2.260;2023-05-15T10:59:50;14.00;99.90
44671;DHT22;48397;53.016;-2.260;2023-05-15T11:05:02;14.20;99.90
44671;DHT22;48397;53.016;-2.260;2023-05-15T11:07:30;14.20;99.90
44671;DHT22;48397;53.016;-2.260;2023-05-15T11:09:58;14.40;99.90
44671;DHT22;48397;53.016;-2.260;2023-05-15T11:12:56;14.50;99.90
44671;DHT22;48397;53.016;-2.260;2023-05-15T11:15:24;14.60;99.90
44671;DHT22;48397;53.016;-2.260;2023-05-15T11:18:01;14.60;99.90
44671;DHT22;48397;53.016;-2.260;2023-05-15T11:21:05;14.10;99.90
44671;DHT22;48397;53.016;-2.260;2023-05-15T11:23:38;13.90;99.90
44671;DHT22;48397;53.016;-2.260;2023-05-15T11:26:07;13.90;99.90
44671;DHT22;48397;53.016;-2.260;2023-05-15T11:28:39;13.90;99.90
44671;DHT22;48397;53.016;-2.260;2023-05-15T11:31:07;13.80;99.90
44671;DHT22;48397;53.016;-2.260;2023-05-15T11:33:37;10.30;99.90
44671;DHT22;48397;53.016;-2.260;2023-05-15T11:36:06;13.90;99.90
44671;DHT22;48397;53.016;-2.260;2023-05-15T11:38:37;14.00;99.90
44671;DHT22;48397;53.016;-2.260;2023-05-15T11:41:30;14.40;99.90
44671;DHT22;48397;53.016;-2.260;2023-05-15T11:43:58;14.70;99.90
44671;DHT22;48397;53.016;-2.260;2023-05-15T11:46:26;14.70;99.90
44671;DHT22;48397;53.016;-2.260;2023-05-15T11:48:54;14.90;99.90
44671;DHT22;48397;53.016;-2.260;2023-05-15T11:51:24;14.90;99.90
44671;DHT22;48397;53.016;-2.260;2023-05-15T11:53:54;14.90;99.90
44671;DHT22;48397;53.016;-2.260;2023-05-15T11:56:24;14.50;99.90
44671;DHT22;48397;53.016;-2.260;2023-05-15T11:58:57;14.40;99.90
44671;DHT22;48397;53.016;-2.260;2023-05-15T12:01:25;14.40;99.90
44671;DHT22;48397;53.016;-2.260;2023-05-15T12:03:52;14.50;99.90
44671;DHT22;48397;53.016;-2.260;2023-05-15T12:06:21;15.30;99.90
44671;DHT22;48397;53.016;-2.260;2023-05-15T12:08:51;15.40;99.90
44671;DHT22;48397;53.016;-2.260;2023-05-15T12:11:23;15.30;99.90
44671;DHT22;48397;53.016;-2.260;2023-05-15T12:13:52;14.90;99.90
44671;DHT22;48397;53.016;-2.260;2023-05-15T12:16:25;14.80;99.90
44671;DHT22;48397;53.016;-2.260;2023-05-15T12:18:55;15.00;99.90
44671;DHT22;48397;53.016;-2.260;2023-05-15T12:21:27;15.20;99.90
44671;DHT22;48397;53.016;-2.260;2023-05-15T12:23:54;15.50;99.90
44671;DHT22;48397;53.016;-2.260;2023-05-15T12:26:34;15.40;99.90
44671;DHT22;48397;53.016;-2.260;2023-05-15T12:29:03;15.40;99.90
44671;DHT22;48397;53.016;-2.260;2023-05-15T12:31:35;14.60;99.90
44671;DHT22;48397;53.016;-2.260;2023-05-15T12:34:03;14.50;99.90
44671;DHT22;48397;53.016;-2.260;2023-05-15T12:36:33;15.10;99.90
44671;DHT22;48397;53.016;-2.260;2023-05-15T12:39:05;15.10;99.90
44671;DHT22;48397;53.016;-2.260;2023-05-15T12:41:36;15.60;99.90
44671;DHT22;48397;53.016;-2.260;2023-05-15T12:44:15;16.10;99.90
44671;DHT22;48397;53.016;-2.260;2023-05-15T12:46:44;15.70;98.90
44671;DHT22;48397;53.016;-2.260;2023-05-15T12:49:11;15.70;98.90
44671;DHT22;48397;53.016;-2.260;2023-05-15T12:51:44;15.70;98.10
44671;DHT22;48397;53.016;-2.260;2023-05-15T12:54:19;15.70;98.80
44671;DHT22;48397;53.016;-2.260;2023-05-15T12:56:47;15.50;99.60
44671;DHT22;48397;53.016;-2.260;2023-05-15T12:59:15;15.50;99.80
44671;DHT22;48397;53.016;-2.260;2023-05-15T13:01:43;15.50;99.50
44671;DHT22;48397;53.016;-2.260;2023-05-15T13:04:11;15.50;98.60
44671;DHT22;48397;53.016;-2.260;2023-05-15T13:06:38;15.60;98.10
44671;DHT22;48397;53.016;-2.260;2023-05-15T13:09:23;15.60;98.30
44671;DHT22;48397;53.016;-2.260;2023-05-15T13:11:56;16.00;97.60
44671;DHT22;48397;53.016;-2.260;2023-05-15T13:14:26;15.90;98.10
44671;DHT22;48397;53.016;-2.260;2023-05-15T13:16:59;16.00;97.50
44671;DHT22;48397;53.016;-2.260;2023-05-15T13:19:28;16.10;96.70
44671;DHT22;48397;53.016;-2.260;2023-05-15T13:21:57;16.20;95.10
44671;DHT22;48397;53.016;-2.260;2023-05-15T13:24:25;16.20;95.20
44671;DHT22;48397;53.016;-2.260;2023-05-15T13:26:53;16.30;94.80
44671;DHT22;48397;53.016;-2.260;2023-05-15T13:29:21;16.30;94.70
44671;DHT22;48397;53.016;-2.260;2023-05-15T13:31:50;16.60;95.00
44671;DHT22;48397;53.016;-2.260;2023-05-15T13:34:18;16.50;95.90
44671;DHT22;48397;53.016;-2.260;2023-05-15T13:36:46;16.60;94.80
44671;DHT22;48397;53.016;-2.260;2023-05-15T13:39:13;16.60;95.30
44671;DHT22;48397;53.016;-2.260;2023-05-15T13:41:42;16.70;93.00
44671;DHT22;48397;53.016;-2.260;2023-05-15T13:44:10;17.10;94.30
44671;DHT22;48397;53.016;-2.260;2023-05-15T13:46:37;16.90;95.10
44671;DHT22;48397;53.016;-2.260;2023-05-15T13:49:05;16.30;94.80
44671;DHT22;48397;53.016;-2.260;2023-05-15T13:51:34;16.10;96.00
44671;DHT22;48397;53.016;-2.260;2023-05-15T13:54:01;16.10;96.20
44671;DHT22;48397;53.016;-2.260;2023-05-15T13:56:29;16.80;94.80
44671;DHT22;48397;53.016;-2.260;2023-05-15T13:58:57;17.00;94.30
44671;DHT22;48397;53.016;-2.260;2023-05-15T14:01:25;17.00;94.50
44671;DHT22;48397;53.016;-2.260;2023-05-15T14:03:53;17.00;94.50
44671;DHT22;48397;53.016;-2.260;2023-05-15T14:06:23;17.00;95.50
44671;DHT22;48397;53.016;-2.260;2023-05-15T14:08:52;17.20;95.00
44671;DHT22;48397;53.016;-2.260;2023-05-15T14:11:19;17.20;95.20
44671;DHT22;48397;53.016;-2.260;2023-05-15T14:13:49;17.40;92.60
44671;DHT22;48397;53.016;-2.260;2023-05-15T14:16:17;17.40;93.90
44671;DHT22;48397;53.016;-2.260;2023-05-15T14:18:45;17.40;94.10
44671;DHT22;48397;53.016;-2.260;2023-05-15T14:21:13;17.70;93.80
44671;DHT22;48397;53.016;-2.260;2023-05-15T14:23:40;17.80;95.00
44671;DHT22;48397;53.016;-2.260;2023-05-15T14:28:26;18.30;91.50
44671;DHT22;48397;53.016;-2.260;2023-05-15T14:30:54;17.90;92.30
44671;DHT22;48397;53.016;-2.260;2023-05-15T14:33:22;17.90;92.40
44671;DHT22;48397;53.016;-2.260;2023-05-15T14:35:50;17.90;92.50
44671;DHT22;48397;53.016;-2.260;2023-05-15T14:38:18;17.70;92.90
44671;DHT22;48397;53.016;-2.260;2023-05-15T14:40:46;17.90;92.90
44671;DHT22;48397;53.016;-2.260;2023-05-15T14:43:14;18.00;93.10
44671;DHT22;48397;53.016;-2.260;2023-05-15T14:45:42;14.30;92.00
44671;DHT22;48397;53.016;-2.260;2023-05-15T14:48:09;17.90;92.70
44671;DHT22;48397;53.016;-2.260;2023-05-15T14:50:38;17.80;92.30
44671;DHT22;48397;53.016;-2.260;2023-05-15T14:53:05;17.80;91.80
44671;DHT22;48397;53.016;-2.260;2023-05-15T14:55:33;17.90;92.00
44671;DHT22;48397;53.016;-2.260;2023-05-15T14:58:01;17.70;91.90
44671;DHT22;48397;53.016;-2.260;2023-05-15T15:00:29;17.80;92.30
44671;DHT22;48397;53.016;-2.260;2023-05-15T15:02:58;17.80;91.90
44671;DHT22;48397;53.016;-2.260;2023-05-15T15:05:25;17.80;92.20
44671;DHT22;48397;53.016;-2.260;2023-05-15T15:08:06;17.80;92.00
44671;DHT22;48397;53.016;-2.260;2023-05-15T15:10:35;17.80;92.00
44671;DHT22;48397;53.016;-2.260;2023-05-15T15:13:03;17.90;91.90
44671;DHT22;48397;53.016;-2.260;2023-05-15T15:15:32;17.90;92.80
44671;DHT22;48397;53.016;-2.260;2023-05-15T15:18:01;18.50;91.80
44671;DHT22;48397;53.016;-2.260;2023-05-15T15:20:30;18.50;92.40
44671;DHT22;48397;53.016;-2.260;2023-05-15T15:22:58;18.50;92.20
44671;DHT22;48397;53.016;-2.260;2023-05-15T15:25:25;18.50;92.20
44671;DHT22;48397;53.016;-2.260;2023-05-15T15:27:53;18.90;90.90
44671;DHT22;48397;53.016;-2.260;2023-05-15T15:30:21;18.90;91.10
44671;DHT22;48397;53.016;-2.260;2023-05-15T15:32:48;18.90;91.40
44671;DHT22;48397;53.016;-2.260;2023-05-15T15:35:17;18.90;91.10
44671;DHT22;48397;53.016;-2.260;2023-05-15T15:37:45;18.90;91.40
44671;DHT22;48397;53.016;-2.260;2023-05-15T15:40:14;18.90;90.50
44671;DHT22;48397;53.016;-2.260;2023-05-15T15:42:42;18.90;91.00
44671;DHT22;48397;53.016;-2.260;2023-05-15T15:45:09;18.80;91.10
44671;DHT22;48397;53.016;-2.260;2023-05-15T15:47:37;19.10;91.00
44671;DHT22;48397;53.016;-2.260;2023-05-15T15:50:05;19.10;90.60
44671;DHT22;48397;53.016;-2.260;2023-05-15T15:52:33;19.00;90.80
44671;DHT22;48397;53.016;-2.260;2023-05-15T15:55:01;18.90;90.50
44671;DHT22;48397;53.016;-2.260;2023-05-15T15:57:29;18.90;90.70
44671;DHT22;48397;53.016;-2.260;2023-05-15T15:59:57;19.40;90.70
44671;DHT22;48397;53.016;-2.260;2023-05-15T16:02:25;19.40;90.90
44671;DHT22;48397;53.016;-2.260;2023-05-15T16:04:54;19.50;88.00
44671;DHT22;48397;53.016;-2.260;2023-05-15T16:07:22;19.40;88.30
44671;DHT22;48397;53.016;-2.260;2023-05-15T16:09:50;19.20;89.70
44671;DHT22;48397;53.016;-2.260;2023-05-15T16:12:30;19.30;90.00
44671;DHT22;48397;53.016;-2.260;2023-05-15T16:14:58;19.60;88.20
44671;DHT22;48397;53.016;-2.260;2023-05-15T16:17:40;19.70;88.50
44671;DHT22;48397;53.016;-2.260;2023-05-15T16:20:09;19.00;90.20
44671;DHT22;48397;53.016;-2.260;2023-05-15T16:22:38;18.60;88.70
44671;DHT22;48397;53.016;-2.260;2023-05-15T16:25:09;18.40;90.40
44671;DHT22;48397;53.016;-2.260;2023-05-15T16:27:37;18.40;91.00
44671;DHT22;48397;53.016;-2.260;2023-05-15T16:30:05;18.70;90.30
44671;DHT22;48397;53.016;-2.260;2023-05-15T16:32:34;19.00;89.80